13h25 EST


 

Suivi/Infos de l'aéroport


-ou-


 

Suivi des vols en temps réelSeaPort (K5) #12

Thumbnail
SeaPort 12
SQH12 · "Sasquatch" (tous les vols) seaportair.com
Tupelo Rgnl ()
Int'l de Memphis ()
11h34 CST
12h14 CST
Prévu: 11h25 CST
Prévu: 11h56 CST
Durée: 40 minutes
jeudi, 20 novembre 2014
Statut A atterri il y a 2 jours (journal de vol & graphique)
Avion Cessna Caravan (monoturbopropulseur) (C208/G – photos)
Vitesse Plan de vol: 168 kts (graphique)
Altitude Plan de vol: 6.000 Pieds (graphique)
Distance En ligne droite 140 km    Prévue 156 km    Parcourue 223 km
TarifAverage: $98.87 (Aperçu sur les compagnies aériennes)
Route MEM (Décoder)
JOURNAL DE L'ACTIVITE
Vous voulez une recherche complète sur l'historique de SQH12 depuis 1998? Achetez maintenant. Recevez-le dans l'heure.
Date Avion Provenance Destination Départ Arrivée Durée
20-11-2014 C208/GTupelo Rgnl ()Int'l de Memphis () 11h34 CST 12h14 CST 0:40
20-11-2014 C208/GNashville Intl ()Tupelo Rgnl () 09h57 CST 11h07 CST 1:10
20-11-2014 C208/GTupelo Rgnl ()Nashville Intl () 06h53 CST 07h55 CST 1:02
19-11-2014 C208/GNashville Intl ()Tupelo Rgnl () 21h00 CST 22h07 CST 1:07
19-11-2014 C208/GTupelo Rgnl ()Nashville Intl () 19h23 CST 20h28 CST 1:05
19-11-2014 C208/GInt'l de Memphis ()Tupelo Rgnl () 18h27 CST 18h58 CST 0:31
18-11-2014 C208/GBoone County ()Int'l de Memphis () 15h55 CST 16h55 CST 1:00
18-11-2014 C208/GInt'l de Kansas City ()Boone County () 13h46 CST 14h55 CST 1:09
18-11-2014 C208/GSalina Rgnl ()Int'l de Kansas City () 12h25 CST 13h20 CST 0:55
18-11-2014 C208/GInt'l de Kansas City ()Salina Rgnl () 10h48 CST 11h58 CST 1:10
18-11-2014 C208/GInt'l de Kansas City ()Boone County () 10h48 CST Dérouté
18-11-2014 C208/GSalina Rgnl ()Int'l de Kansas City () 09h35 CST 10h29 CST 0:54
16-11-2014 C208/GInt'l de Kansas City ()Salina Rgnl () 20h39 CST 21h48 CST 1:09
16-11-2014 C208/GSalina Rgnl ()Int'l de Kansas City () 19h12 CST 20h09 CST 0:57
16-11-2014 C208/GInt'l de Kansas City ()Salina Rgnl () 17h46 CST 18h52 CST 1:06
16-11-2014 C208/GBoone County ()Int'l de Kansas City () 15h36 CST 16h56 CST 1:20
16-11-2014 C208/GInt'l de Memphis ()Boone County () 12h21 CST 13h45 CST (?) 1:24
13-11-2014 C208/GTupelo Rgnl ()Int'l de Memphis () 12h54 CST 13h32 CST 0:38
13-11-2014 C208/GNashville Intl ()Tupelo Rgnl () 11h15 CST 12h27 CST 1:12
13-11-2014 C208/GTupelo Rgnl ()Nashville Intl () 09h41 CST 10h42 CST 1:01
12-11-2014 C208/GNashville Intl ()Tupelo Rgnl () 23h09 CST 00h24 CST (+1) 1:15
12-11-2014 C208/GTupelo Rgnl ()Nashville Intl () 21h39 CST 22h37 CST 0:58
12-11-2014 C208/GInt'l de Memphis ()Tupelo Rgnl () 20h36 CST 21h06 CST 0:30
10-11-2014 C208/GBoone County ()Int'l de Memphis () 14h37 CST 15h47 CST 1:10
10-11-2014 C208/GInt'l de Kansas City ()Boone County () 12h39 CST 14h07 CST 1:28
10-11-2014 C208/GSalina Rgnl ()Int'l de Kansas City () 10h48 CST 11h45 CST 0:57
10-11-2014 C208/GInt'l de Kansas City ()Salina Rgnl () 08h57 CST 10h04 CST 1:07
10-11-2014 C208/GSalina Rgnl ()Int'l de Kansas City () 06h35 CST 07h26 CST 0:51
09-11-2014 C208/GInt'l de Kansas City ()Salina Rgnl () 18h47 CST 19h49 CST 1:02
09-11-2014 C208/GSalina Rgnl ()Int'l de Kansas City () 17h05 CST 18h01 CST 0:56
09-11-2014 C208/GInt'l de Kansas City ()Salina Rgnl () 15h28 CST 16h32 CST 1:04
09-11-2014 C208/GBoone County ()Int'l de Kansas City () 13h37 CST 14h54 CST 1:16
09-11-2014 C208/GInt'l de Memphis ()Boone County () 11h43 CST 13h00 CST 1:17
Les membres inscrits (l'inscription est gratuite et facile!) voient 4 months d'historique. S'inscrire